createdAt,value
2022-09-14T00:03:00.600Z,23.00
2022-09-14T00:08:03.908Z,23.00
2022-09-14T00:13:06.998Z,23.00
2022-09-14T00:18:12.381Z,23.00
2022-09-14T00:23:15.328Z,23.00
2022-09-14T00:28:18.578Z,23.00
2022-09-14T00:33:22.902Z,23.00
2022-09-14T00:38:27.705Z,23.00
2022-09-14T00:43:30.738Z,23.00
2022-09-14T00:48:35.049Z,23.00
2022-09-14T00:53:38.276Z,23.00
2022-09-14T00:58:41.505Z,23.00
2022-09-14T01:03:45.856Z,23.00
2022-09-14T01:09:19.098Z,23.00
2022-09-14T01:14:34.699Z,23.00
2022-09-14T01:19:55.884Z,23.00
2022-09-14T01:25:12.461Z,23.00
2022-09-14T01:30:21.582Z,23.00
2022-09-14T01:35:29.374Z,23.00
2022-09-14T01:40:35.838Z,23.00
2022-09-14T01:45:45.142Z,23.00
2022-09-14T01:50:51.771Z,23.00
2022-09-14T01:55:59.945Z,23.00
2022-09-14T02:01:07.086Z,23.00
2022-09-14T02:06:15.235Z,23.00
2022-09-14T02:11:18.237Z,23.00
2022-09-14T02:16:24.500Z,23.00
2022-09-14T02:21:30.330Z,23.00
2022-09-14T02:26:34.603Z,23.00
2022-09-14T02:31:47.974Z,23.00
2022-09-14T02:36:56.098Z,23.00
2022-09-14T02:42:09.411Z,23.00
2022-09-14T02:47:21.332Z,23.00
2022-09-14T02:52:32.124Z,23.00
2022-09-14T02:57:55.087Z,23.00
2022-09-14T03:02:59.861Z,23.00
2022-09-14T03:08:03.154Z,23.00
2022-09-14T03:13:06.247Z,23.00
2022-09-14T03:18:14.323Z,23.00
2022-09-14T03:23:17.621Z,23.00
2022-09-14T03:28:20.570Z,23.00
2022-09-14T03:33:24.862Z,23.00
2022-09-14T03:38:30.129Z,23.00
2022-09-14T03:43:33.293Z,23.00
2022-09-14T03:48:37.810Z,23.00
2022-09-14T03:53:41.277Z,23.00
2022-09-14T03:58:44.964Z,23.00
2022-09-14T04:03:50.327Z,23.00
2022-09-14T04:08:53.638Z,23.00
2022-09-14T04:13:56.572Z,23.00
2022-09-14T04:19:00.974Z,23.00
2022-09-14T04:24:14.495Z,23.00
2022-09-14T04:29:18.419Z,23.00
2022-09-14T04:34:22.729Z,23.00
2022-09-14T04:39:26.336Z,23.00
2022-09-14T04:44:29.395Z,23.00
2022-09-14T04:49:33.703Z,23.00
2022-09-14T04:54:36.669Z,23.00
2022-09-14T04:59:39.635Z,23.00
2022-09-14T05:04:44.247Z,23.00
2022-09-14T05:09:47.192Z,23.00
2022-09-14T05:14:50.147Z,23.00
2022-09-14T05:19:54.452Z,23.00
2022-09-14T05:24:57.406Z,23.00
2022-09-14T05:30:00.350Z,23.00
2022-09-14T05:35:05.028Z,23.00
2022-09-14T05:40:09.366Z,23.00
2022-09-14T05:45:12.556Z,23.00
2022-09-14T05:50:17.080Z,23.10
2022-09-14T05:55:20.118Z,23.10
2022-09-14T06:00:23.108Z,23.10
2022-09-14T06:05:28.255Z,23.10
2022-09-14T06:10:31.294Z,23.10
2022-09-14T06:15:35.092Z,23.20
2022-09-14T06:20:39.546Z,23.20
2022-09-14T06:25:42.568Z,23.20
2022-09-14T06:30:45.866Z,23.20
2022-09-14T06:36:01.081Z,23.20
2022-09-14T06:41:06.348Z,23.20
2022-09-14T06:46:12.267Z,23.20
2022-09-14T06:51:19.034Z,23.20
2022-09-14T06:56:22.608Z,23.30
2022-09-14T07:01:26.924Z,23.30
2022-09-14T07:06:33.230Z,23.40
2022-09-14T07:11:36.646Z,23.50
2022-09-14T07:16:40.961Z,23.60
2022-09-14T07:21:45.354Z,23.70
2022-09-14T07:26:48.346Z,23.80
2022-09-14T07:31:53.847Z,23.90
2022-09-14T07:36:58.135Z,24.00
2022-09-14T07:42:01.100Z,24.10
2022-09-14T07:47:04.222Z,24.20
2022-09-14T07:52:08.848Z,24.20
2022-09-14T07:57:11.875Z,24.20
2022-09-14T08:02:15.023Z,24.30
2022-09-14T08:07:19.771Z,24.30
2022-09-14T08:12:22.897Z,24.30
2022-09-14T08:17:25.865Z,24.30
2022-09-14T08:22:30.543Z,24.40
2022-09-14T08:27:33.714Z,24.40
2022-09-14T08:32:36.687Z,24.40
2022-09-14T08:37:41.014Z,24.40
2022-09-14T08:42:44.138Z,24.40
2022-09-14T08:47:47.355Z,24.40
2022-09-14T08:52:53.904Z,24.40
2022-09-14T08:58:04.328Z,24.40
2022-09-14T09:03:34.272Z,24.30
2022-09-14T09:08:45.265Z,24.30
2022-09-14T09:13:51.671Z,24.30
2022-09-14T09:18:59.891Z,24.30
2022-09-14T09:24:17.080Z,24.30
2022-09-14T09:29:20.248Z,24.30
2022-09-14T09:34:28.210Z,24.30
2022-09-14T09:39:32.920Z,24.30
2022-09-14T09:45:00.688Z,24.30
2022-09-14T09:50:16.974Z,24.30
2022-09-14T09:55:22.558Z,24.30
2022-09-14T10:00:29.641Z,24.40
2022-09-14T10:05:33.105Z,24.40
2022-09-14T10:10:44.929Z,24.40
2022-09-14T10:15:48.947Z,24.40
2022-09-14T10:21:08.629Z,24.40
2022-09-14T10:26:25.591Z,24.40
2022-09-14T10:31:34.125Z,24.50
2022-09-14T10:36:43.119Z,24.50
2022-09-14T10:41:57.687Z,24.50
2022-09-14T10:47:17.055Z,24.50
2022-09-14T10:52:27.335Z,24.50
2022-09-14T10:57:43.160Z,24.50
2022-09-14T11:02:58.417Z,24.50
2022-09-14T11:08:13.575Z,24.40
2022-09-14T11:13:34.666Z,24.50
2022-09-14T11:18:47.176Z,24.40
2022-09-14T11:23:54.567Z,24.40
2022-09-14T11:29:04.106Z,24.40
2022-09-14T11:34:19.011Z,24.40
2022-09-14T11:39:25.442Z,24.40
2022-09-14T11:44:34.709Z,24.40
2022-09-14T11:49:47.939Z,24.40
2022-09-14T11:54:52.364Z,24.40
2022-09-14T11:59:57.990Z,24.40
2022-09-14T12:05:44.496Z,24.40
2022-09-14T12:11:25.687Z,24.40
2022-09-14T12:16:34.408Z,24.40
2022-09-14T12:21:38.065Z,24.40
2022-09-14T12:26:41.153Z,24.40
2022-09-14T12:32:07.137Z,24.40
2022-09-14T12:37:30.282Z,24.40
2022-09-14T12:42:33.305Z,24.40
2022-09-14T12:47:55.611Z,24.40
2022-09-14T12:53:27.138Z,24.40
2022-09-14T12:58:59.955Z,24.40
2022-09-14T13:04:05.283Z,24.40
2022-09-14T13:09:16.956Z,24.40
2022-09-14T13:14:20.796Z,24.40
2022-09-14T13:19:27.419Z,24.40
2022-09-14T13:24:34.754Z,24.40
2022-09-14T13:29:37.844Z,24.40
2022-09-14T13:34:42.249Z,24.40
2022-09-14T13:39:51.858Z,24.40
2022-09-14T13:44:55.834Z,24.40
2022-09-14T13:50:00.508Z,24.40
2022-09-14T13:55:21.555Z,24.30
2022-09-14T14:00:24.618Z,24.30
2022-09-14T14:05:31.475Z,24.30
2022-09-14T14:10:36.739Z,24.30
2022-09-14T14:15:42.029Z,24.30
2022-09-14T14:20:46.376Z,24.20
2022-09-14T14:25:54.127Z,24.20
2022-09-14T14:30:59.495Z,24.30
2022-09-14T14:36:09.344Z,24.30
2022-09-14T14:41:16.621Z,24.30
2022-09-14T14:46:19.759Z,24.30
2022-09-14T14:51:24.190Z,24.30
2022-09-14T14:56:28.167Z,24.40
2022-09-14T15:01:31.211Z,24.40
2022-09-14T15:06:35.630Z,24.50
2022-09-14T15:11:40.526Z,24.60
2022-09-14T15:16:44.580Z,24.60
2022-09-14T15:21:49.000Z,24.60
2022-09-14T15:26:53.819Z,24.60
2022-09-14T15:31:56.917Z,24.60
2022-09-14T15:37:01.300Z,24.60
2022-09-14T15:42:04.394Z,24.60
2022-09-14T15:47:07.519Z,24.60
2022-09-14T15:52:12.484Z,24.60
2022-09-14T15:57:15.410Z,24.60
2022-09-14T16:02:20.315Z,24.60
2022-09-14T16:07:24.723Z,24.60
2022-09-14T16:12:27.876Z,24.60
2022-09-14T16:17:30.883Z,24.60
2022-09-14T16:22:35.294Z,24.60
2022-09-14T16:27:38.415Z,24.60
2022-09-14T16:32:41.367Z,24.60
2022-09-14T16:37:45.734Z,24.60
2022-09-14T16:42:48.778Z,24.50
2022-09-14T16:47:52.231Z,24.50
2022-09-14T16:52:56.530Z,24.50
2022-09-14T16:57:59.465Z,24.40
2022-09-14T17:03:02.419Z,24.40
2022-09-14T17:08:06.760Z,24.40
2022-09-14T17:13:09.722Z,24.40
2022-09-14T17:18:12.698Z,24.40
2022-09-14T17:23:17.014Z,24.40
2022-09-14T17:28:22.335Z,24.30
2022-09-14T17:33:26.329Z,24.30
2022-09-14T17:38:34.284Z,24.20
2022-09-14T17:43:38.430Z,24.20
2022-09-14T17:48:42.830Z,24.30
2022-09-14T17:53:48.108Z,24.30
2022-09-14T17:58:59.587Z,24.30
2022-09-14T18:04:04.521Z,24.20
2022-09-14T18:09:11.165Z,24.20
2022-09-14T18:14:14.521Z,24.20
2022-09-14T18:19:17.842Z,24.20
2022-09-14T18:24:22.724Z,24.10
2022-09-14T18:29:25.971Z,24.20
2022-09-14T18:34:29.114Z,24.10
2022-09-14T18:39:33.521Z,24.10
2022-09-14T18:44:36.469Z,24.00
2022-09-14T18:49:39.452Z,24.10
2022-09-14T18:54:43.893Z,24.00
2022-09-14T18:59:46.984Z,24.00
2022-09-14T19:04:50.038Z,24.00
2022-09-14T19:09:54.380Z,24.00
2022-09-14T19:14:57.351Z,24.00
2022-09-14T19:20:00.419Z,24.00
2022-09-14T19:25:05.215Z,23.90
2022-09-14T19:30:09.778Z,23.90
2022-09-14T19:35:12.738Z,23.80
2022-09-14T19:40:17.277Z,23.80
2022-09-14T19:45:20.319Z,23.80
2022-09-14T19:50:23.364Z,23.80
2022-09-14T19:55:27.934Z,23.80
2022-09-14T20:00:31.219Z,23.80
2022-09-14T20:05:34.162Z,23.80
2022-09-14T20:10:38.479Z,23.80
2022-09-14T20:15:41.474Z,23.80
2022-09-14T20:20:44.399Z,23.80
2022-09-14T20:25:48.729Z,23.70
2022-09-14T20:30:58.767Z,23.70
2022-09-14T20:36:02.851Z,23.60
2022-09-14T20:41:09.370Z,23.60
2022-09-14T20:46:15.143Z,23.60
2022-09-14T20:51:20.713Z,23.60
2022-09-14T20:56:27.730Z,23.60
2022-09-14T21:01:33.481Z,23.60
2022-09-14T21:06:37.771Z,23.60
2022-09-14T21:11:42.517Z,23.60
2022-09-14T21:16:47.034Z,23.70
2022-09-14T21:21:51.031Z,23.70
2022-09-14T21:26:57.150Z,23.70
2022-09-14T21:32:00.097Z,23.70
2022-09-14T21:37:03.171Z,23.70
2022-09-14T21:42:07.867Z,23.70
2022-09-14T21:47:10.819Z,23.70
2022-09-14T21:52:13.777Z,23.70
2022-09-14T21:57:19.162Z,23.70
2022-09-14T22:02:22.179Z,23.70
2022-09-14T22:07:25.387Z,23.70
2022-09-14T22:12:30.943Z,23.70
2022-09-14T22:17:33.936Z,23.70
2022-09-14T22:22:37.088Z,23.70
2022-09-14T22:27:41.987Z,23.70
2022-09-14T22:32:44.991Z,23.70
2022-09-14T22:37:49.621Z,23.70
2022-09-14T22:42:53.943Z,23.70
2022-09-14T22:47:56.904Z,23.70
2022-09-14T22:52:59.848Z,23.70
2022-09-14T22:58:04.320Z,23.70
2022-09-14T23:03:08.121Z,23.70
2022-09-14T23:08:11.858Z,23.70
2022-09-14T23:13:16.631Z,23.70
2022-09-14T23:18:19.595Z,23.70
2022-09-14T23:23:22.565Z,23.60
2022-09-14T23:28:27.200Z,23.70
2022-09-14T23:33:31.076Z,23.60
2022-09-14T23:38:35.986Z,23.60
2022-09-14T23:43:40.386Z,23.60
2022-09-14T23:48:43.628Z,23.60
2022-09-14T23:53:46.672Z,23.60
2022-09-14T23:58:51.143Z,23.70
